createdAt,value
2022-10-06T00:00:48.048Z,98844.00
2022-10-06T00:03:23.145Z,98845.00
2022-10-06T00:06:02.901Z,98857.00
2022-10-06T00:08:40.235Z,98853.00
2022-10-06T00:11:17.199Z,98856.00
2022-10-06T00:13:52.223Z,98852.00
2022-10-06T00:16:27.188Z,98857.00
2022-10-06T00:19:02.162Z,98859.00
2022-10-06T00:21:37.384Z,98859.00
2022-10-06T00:24:12.329Z,98864.00
2022-10-06T00:26:48.389Z,98875.00
2022-10-06T00:29:23.321Z,98867.00
2022-10-06T00:31:59.729Z,98861.00
2022-10-06T00:34:36.678Z,98864.00
2022-10-06T00:37:11.651Z,98869.00
2022-10-06T00:39:46.596Z,98878.00
2022-10-06T00:42:30.886Z,98887.00
2022-10-06T00:45:07.249Z,98884.00
2022-10-06T00:47:42.365Z,98884.00
2022-10-06T00:50:17.616Z,98887.00
2022-10-06T00:52:52.616Z,98896.00
2022-10-06T00:55:27.613Z,98887.00
2022-10-06T00:58:02.925Z,98887.00
2022-10-06T01:00:38.315Z,98896.00
2022-10-06T01:03:42.747Z,98901.00
2022-10-06T01:06:17.760Z,98900.00
2022-10-06T01:08:53.323Z,98901.00
2022-10-06T01:11:28.285Z,98906.00
2022-10-06T01:14:03.671Z,98910.00
2022-10-06T01:16:42.752Z,98908.00
2022-10-06T01:20:01.499Z,98905.00
2022-10-06T01:22:41.574Z,98911.00
2022-10-06T01:25:18.674Z,98920.00
2022-10-06T01:27:55.347Z,98917.00
2022-10-06T01:30:52.627Z,98919.00
2022-10-06T01:33:29.912Z,98929.00
2022-10-06T01:36:05.366Z,98927.00
2022-10-06T01:38:40.335Z,98931.00
2022-10-06T01:41:15.430Z,98936.00
2022-10-06T01:43:50.488Z,98930.00
2022-10-06T01:46:25.490Z,98934.00
2022-10-06T01:49:00.435Z,98925.00
2022-10-06T01:51:35.297Z,98942.00
2022-10-06T01:54:10.241Z,98941.00
2022-10-06T01:56:45.198Z,98949.00
2022-10-06T01:59:20.164Z,98940.00
2022-10-06T02:01:55.686Z,98944.00
2022-10-06T02:04:30.823Z,98942.00
2022-10-06T02:07:06.679Z,98943.00
2022-10-06T02:09:49.591Z,98942.00
2022-10-06T02:12:25.523Z,98953.00
2022-10-06T02:15:00.584Z,98946.00
2022-10-06T02:17:35.518Z,98949.00
2022-10-06T02:20:10.735Z,98948.00
2022-10-06T02:22:45.685Z,98949.00
2022-10-06T02:25:20.643Z,98961.00
2022-10-06T02:27:56.966Z,98954.00
2022-10-06T02:30:32.104Z,98964.00
2022-10-06T02:33:07.611Z,98967.00
2022-10-06T02:35:43.854Z,98970.00
2022-10-06T02:38:19.465Z,98977.00
2022-10-06T02:40:54.576Z,98977.00
2022-10-06T02:43:31.767Z,98979.00
2022-10-06T02:46:13.162Z,98987.00
2022-10-06T02:48:53.821Z,98996.00
2022-10-06T02:51:29.796Z,98997.00
2022-10-06T02:54:04.697Z,98992.00
2022-10-06T02:56:39.559Z,98994.00
2022-10-06T02:59:14.875Z,98996.00
2022-10-06T03:01:52.387Z,98999.00
2022-10-06T03:04:27.813Z,99012.00
2022-10-06T03:07:02.846Z,99018.00
2022-10-06T03:09:43.132Z,99015.00
2022-10-06T03:12:18.289Z,99022.00
2022-10-06T03:14:53.508Z,99038.00
2022-10-06T03:17:29.218Z,99039.00
2022-10-06T03:20:06.070Z,99035.00
2022-10-06T03:22:41.094Z,99041.00
2022-10-06T03:25:16.171Z,99044.00
2022-10-06T03:27:51.251Z,99056.00
2022-10-06T03:30:26.289Z,99067.00
2022-10-06T03:33:01.723Z,99070.00
2022-10-06T03:35:37.083Z,99074.00
2022-10-06T03:38:12.231Z,99069.00
2022-10-06T03:40:47.221Z,99083.00
2022-10-06T03:43:22.394Z,99077.00
2022-10-06T03:46:01.637Z,99082.00
2022-10-06T03:48:38.494Z,99086.00
2022-10-06T03:51:17.202Z,99096.00
2022-10-06T03:53:53.398Z,99102.00
2022-10-06T03:56:32.363Z,99113.00
2022-10-06T03:59:10.367Z,99115.00
2022-10-06T04:01:48.831Z,99117.00
2022-10-06T04:04:28.824Z,99118.00
2022-10-06T04:07:09.355Z,99121.00
2022-10-06T04:09:44.391Z,99113.00
2022-10-06T04:12:20.870Z,99117.00
2022-10-06T04:14:59.983Z,99118.00
2022-10-06T04:17:36.131Z,99124.00
2022-10-06T04:20:11.097Z,99126.00
2022-10-06T04:22:46.490Z,99134.00
2022-10-06T04:25:22.291Z,99131.00
2022-10-06T04:27:57.968Z,99125.00
2022-10-06T04:30:33.539Z,99120.00
2022-10-06T04:33:09.117Z,99126.00
2022-10-06T04:35:44.134Z,99131.00
2022-10-06T04:38:19.424Z,99141.00
2022-10-06T04:40:54.393Z,99140.00
2022-10-06T04:43:29.702Z,99141.00
2022-10-06T04:46:23.969Z,99147.00
2022-10-06T04:49:00.691Z,99152.00
2022-10-06T04:51:38.223Z,99147.00
2022-10-06T04:54:14.430Z,99152.00
2022-10-06T04:56:49.793Z,99156.00
2022-10-06T04:59:46.660Z,99155.00
2022-10-06T05:02:24.538Z,99156.00
2022-10-06T05:05:02.273Z,99161.00
2022-10-06T05:07:37.467Z,99175.00
2022-10-06T05:10:12.517Z,99176.00
2022-10-06T05:12:47.444Z,99185.00
2022-10-06T05:15:22.819Z,99175.00
2022-10-06T05:17:57.814Z,99182.00
2022-10-06T05:20:32.979Z,99179.00
2022-10-06T05:23:07.967Z,99185.00
2022-10-06T05:25:52.684Z,99186.00
2022-10-06T05:28:31.659Z,99194.00
2022-10-06T05:31:21.401Z,99196.00
2022-10-06T05:33:58.141Z,99200.00
2022-10-06T05:36:35.014Z,99208.00
2022-10-06T05:39:10.473Z,99213.00
2022-10-06T05:41:52.546Z,99218.00
2022-10-06T05:44:27.548Z,99218.00
2022-10-06T05:47:04.317Z,99219.00
2022-10-06T05:49:39.836Z,99223.00
2022-10-06T05:52:14.774Z,99227.00
2022-10-06T05:54:50.632Z,99225.00
2022-10-06T05:57:28.135Z,99226.00
2022-10-06T06:00:03.572Z,99234.00
2022-10-06T06:02:48.077Z,99236.00
2022-10-06T06:05:23.457Z,99240.00
2022-10-06T06:07:59.129Z,99244.00
2022-10-06T06:10:34.150Z,99250.00
2022-10-06T06:13:09.137Z,99247.00
2022-10-06T06:16:01.080Z,99253.00
2022-10-06T06:18:37.733Z,99262.00
2022-10-06T06:21:14.376Z,99263.00
2022-10-06T06:23:50.320Z,99268.00
2022-10-06T06:26:31.625Z,99277.00
2022-10-06T06:29:07.102Z,99273.00
2022-10-06T06:31:48.554Z,99277.00
2022-10-06T06:34:25.565Z,99279.00
2022-10-06T06:37:07.542Z,99285.00
2022-10-06T06:39:44.390Z,99293.00
2022-10-06T06:42:19.481Z,99306.00
2022-10-06T06:44:57.177Z,99312.00
2022-10-06T06:47:52.286Z,99307.00
2022-10-06T06:50:28.047Z,99311.00
2022-10-06T06:53:03.116Z,99320.00
2022-10-06T06:55:50.948Z,99324.00
2022-10-06T06:58:28.073Z,99325.00
2022-10-06T07:01:13.713Z,99334.00
2022-10-06T07:03:57.461Z,99339.00
2022-10-06T07:06:36.976Z,99342.00
2022-10-06T07:09:12.028Z,99349.00
2022-10-06T07:11:50.109Z,99357.00
2022-10-06T07:14:28.344Z,99351.00
2022-10-06T07:17:22.226Z,99343.00
2022-10-06T07:20:17.061Z,99356.00
2022-10-06T07:23:10.339Z,99360.00
2022-10-06T07:25:45.316Z,99374.00
2022-10-06T07:28:21.489Z,99363.00
2022-10-06T07:31:00.527Z,99373.00
2022-10-06T07:33:37.559Z,99377.00
2022-10-06T07:36:13.965Z,99380.00
2022-10-06T07:38:49.121Z,99377.00
2022-10-06T07:41:25.671Z,99391.00
2022-10-06T07:44:08.018Z,99380.00
2022-10-06T07:46:44.664Z,99388.00
2022-10-06T07:49:23.422Z,99379.00
2022-10-06T07:51:58.547Z,99385.00
2022-10-06T07:54:34.051Z,99393.00
2022-10-06T07:57:30.215Z,99394.00
2022-10-06T08:00:07.334Z,99397.00
2022-10-06T08:02:46.685Z,99404.00
2022-10-06T08:05:21.888Z,99407.00
2022-10-06T08:07:57.034Z,99399.00
2022-10-06T08:10:32.010Z,99406.00
2022-10-06T08:13:07.617Z,99408.00
2022-10-06T08:15:42.948Z,99412.00
2022-10-06T08:18:40.973Z,99411.00
2022-10-06T08:21:18.773Z,99414.00
2022-10-06T08:23:54.977Z,99418.00
2022-10-06T08:26:31.154Z,99425.00
2022-10-06T08:29:06.190Z,99425.00
2022-10-06T08:31:41.152Z,99427.00
2022-10-06T08:34:16.165Z,99423.00
2022-10-06T08:37:02.454Z,99428.00
2022-10-06T08:39:46.053Z,99437.00
2022-10-06T08:42:43.299Z,99445.00
2022-10-06T08:45:29.103Z,99443.00
2022-10-06T08:48:14.646Z,99444.00
2022-10-06T08:51:29.943Z,99448.00
2022-10-06T08:54:46.594Z,99450.00
2022-10-06T08:57:40.059Z,99449.00
2022-10-06T09:00:21.252Z,99453.00
2022-10-06T09:02:57.173Z,99457.00
2022-10-06T09:05:34.661Z,99458.00
2022-10-06T09:09:03.090Z,99469.00
2022-10-06T09:12:14.661Z,99462.00
2022-10-06T09:15:22.366Z,99467.00
2022-10-06T09:18:49.850Z,99468.00
2022-10-06T09:21:35.297Z,99468.00
2022-10-06T09:24:20.564Z,99469.00
2022-10-06T09:26:58.953Z,99462.00
2022-10-06T09:29:33.925Z,99465.00
2022-10-06T09:32:10.957Z,99464.00
2022-10-06T09:34:59.735Z,99465.00
2022-10-06T09:37:58.010Z,99477.00
2022-10-06T09:40:42.011Z,99470.00
2022-10-06T09:43:28.913Z,99473.00
2022-10-06T09:46:27.792Z,99483.00
2022-10-06T09:49:16.799Z,99483.00
2022-10-06T09:52:18.353Z,99489.00
2022-10-06T09:55:12.331Z,99500.00
2022-10-06T09:57:53.862Z,99498.00
2022-10-06T10:00:40.097Z,99496.00
2022-10-06T10:03:15.952Z,99497.00
2022-10-06T10:05:54.861Z,99510.00
2022-10-06T10:08:32.466Z,99495.00
2022-10-06T10:11:40.758Z,99502.00
2022-10-06T10:14:19.601Z,99495.00
2022-10-06T10:16:54.545Z,99496.00
2022-10-06T10:19:37.840Z,99498.00
2022-10-06T10:22:30.932Z,99493.00
2022-10-06T10:25:55.389Z,99495.00
2022-10-06T10:28:50.842Z,99492.00
2022-10-06T10:31:52.952Z,99497.00
2022-10-06T10:34:43.788Z,99491.00
2022-10-06T10:37:35.240Z,99497.00
2022-10-06T10:40:55.990Z,99490.00
2022-10-06T10:43:51.298Z,99490.00
2022-10-06T10:47:03.500Z,99486.00
2022-10-06T10:49:43.318Z,99483.00
2022-10-06T10:52:24.212Z,99478.00
2022-10-06T10:55:27.131Z,99474.00
2022-10-06T10:58:16.732Z,99465.00
2022-10-06T11:00:58.186Z,99471.00
2022-10-06T11:03:33.406Z,99474.00
2022-10-06T11:07:04.718Z,99480.00
2022-10-06T11:10:12.938Z,99474.00
2022-10-06T11:13:23.135Z,99476.00
2022-10-06T11:16:24.605Z,99486.00
2022-10-06T11:19:41.810Z,99477.00
2022-10-06T11:22:45.171Z,99482.00
2022-10-06T11:25:48.570Z,99476.00
2022-10-06T11:28:43.803Z,99477.00
2022-10-06T11:31:51.406Z,99474.00
2022-10-06T11:34:26.415Z,99477.00
2022-10-06T11:37:38.868Z,99469.00
2022-10-06T11:40:32.342Z,99470.00
2022-10-06T11:43:33.607Z,99468.00
2022-10-06T11:46:38.290Z,99468.00
2022-10-06T11:49:36.904Z,99465.00
2022-10-06T11:52:11.673Z,99457.00
2022-10-06T11:54:54.051Z,99454.00
2022-10-06T11:57:31.204Z,99453.00
2022-10-06T12:00:08.981Z,99461.00
2022-10-06T12:02:46.248Z,99457.00
2022-10-06T12:05:57.452Z,99457.00
2022-10-06T12:08:38.014Z,99455.00
2022-10-06T12:11:37.802Z,99455.00
2022-10-06T12:18:07.079Z,99450.00
2022-10-06T12:21:06.266Z,99449.00
2022-10-06T12:24:38.075Z,99449.00
2022-10-06T12:27:44.046Z,99444.00
2022-10-06T12:30:22.626Z,99450.00
2022-10-06T12:32:58.940Z,99452.00
2022-10-06T12:35:36.072Z,99449.00
2022-10-06T12:38:33.654Z,99448.00
2022-10-06T12:41:13.694Z,99445.00
2022-10-06T12:43:57.210Z,99453.00
2022-10-06T12:46:43.724Z,99446.00
2022-10-06T12:49:38.985Z,99447.00
2022-10-06T12:52:48.019Z,99438.00
2022-10-06T12:55:51.687Z,99438.00
2022-10-06T12:58:30.018Z,99444.00
2022-10-06T13:01:10.311Z,99444.00
2022-10-06T13:03:53.183Z,99448.00
2022-10-06T13:06:28.115Z,99435.00
2022-10-06T13:09:12.059Z,99429.00
2022-10-06T13:11:49.153Z,99423.00
2022-10-06T13:14:24.014Z,99426.00
2022-10-06T13:17:03.156Z,99430.00
2022-10-06T13:19:43.721Z,99423.00
2022-10-06T13:22:18.636Z,99426.00
2022-10-06T13:25:00.872Z,99423.00
2022-10-06T13:27:35.800Z,99431.00
2022-10-06T13:30:22.378Z,99428.00
2022-10-06T13:32:58.011Z,99427.00
2022-10-06T13:35:32.889Z,99419.00
2022-10-06T13:38:07.942Z,99422.00
2022-10-06T13:40:45.209Z,99416.00
2022-10-06T13:43:20.633Z,99415.00
2022-10-06T13:45:57.219Z,99419.00
2022-10-06T13:48:32.272Z,99422.00
2022-10-06T13:51:15.289Z,99422.00
2022-10-06T13:53:51.885Z,99419.00
2022-10-06T13:56:38.807Z,99417.00
2022-10-06T13:59:31.589Z,99419.00
2022-10-06T14:02:18.409Z,99417.00
2022-10-06T14:05:42.053Z,99412.00
2022-10-06T14:08:25.012Z,99405.00
2022-10-06T14:11:08.438Z,99416.00
2022-10-06T14:14:03.978Z,99409.00
2022-10-06T14:16:38.909Z,99414.00
2022-10-06T14:19:33.017Z,99409.00
2022-10-06T14:22:34.540Z,99400.00
2022-10-06T14:25:15.115Z,99407.00
2022-10-06T14:27:50.049Z,99408.00
2022-10-06T14:30:24.990Z,99404.00
2022-10-06T14:32:59.878Z,99397.00
2022-10-06T14:35:35.106Z,99399.00
2022-10-06T14:38:10.699Z,99397.00
2022-10-06T14:40:45.677Z,99392.00
2022-10-06T14:43:20.773Z,99391.00
2022-10-06T14:45:55.744Z,99387.00
2022-10-06T14:48:30.697Z,99390.00
2022-10-06T14:51:05.829Z,99389.00
2022-10-06T14:53:40.845Z,99391.00
2022-10-06T14:56:15.978Z,99396.00
2022-10-06T14:58:52.338Z,99392.00
2022-10-06T15:01:29.136Z,99384.00
2022-10-06T15:04:18.643Z,99388.00
2022-10-06T15:07:13.212Z,99389.00
2022-10-06T15:09:48.190Z,99387.00
2022-10-06T15:12:23.261Z,99378.00
2022-10-06T15:14:58.111Z,99385.00
2022-10-06T15:17:33.078Z,99386.00
2022-10-06T15:20:08.574Z,99387.00
2022-10-06T15:22:44.489Z,99386.00
2022-10-06T15:25:38.007Z,99383.00
2022-10-06T15:28:32.124Z,99369.00
2022-10-06T15:31:07.197Z,99375.00
2022-10-06T15:33:43.471Z,99368.00
2022-10-06T15:36:23.703Z,99370.00
2022-10-06T15:38:59.197Z,99372.00
2022-10-06T15:41:39.265Z,99369.00
2022-10-06T15:44:14.786Z,99375.00
2022-10-06T15:46:58.001Z,99371.00
2022-10-06T15:49:38.002Z,99372.00
2022-10-06T15:52:13.583Z,99365.00
2022-10-06T15:54:49.773Z,99370.00
2022-10-06T15:57:25.370Z,99373.00
2022-10-06T16:00:00.378Z,99369.00
2022-10-06T16:02:35.744Z,99366.00
2022-10-06T16:05:10.873Z,99373.00
2022-10-06T16:07:45.898Z,99368.00
2022-10-06T16:10:20.829Z,99369.00
2022-10-06T16:12:55.759Z,99366.00
2022-10-06T16:15:30.713Z,99364.00
2022-10-06T16:18:05.630Z,99367.00
2022-10-06T16:20:40.589Z,99354.00
2022-10-06T16:23:15.486Z,99369.00
2022-10-06T16:25:50.554Z,99361.00
2022-10-06T16:28:25.592Z,99365.00
2022-10-06T16:31:00.596Z,99375.00
2022-10-06T16:33:35.520Z,99377.00
2022-10-06T16:36:11.238Z,99376.00
2022-10-06T16:38:50.955Z,99371.00
2022-10-06T16:41:25.989Z,99375.00
2022-10-06T16:44:00.985Z,99374.00
2022-10-06T16:46:36.016Z,99373.00
2022-10-06T16:49:11.168Z,99383.00
2022-10-06T16:51:46.168Z,99388.00
2022-10-06T16:54:21.172Z,99378.00
2022-10-06T16:56:57.483Z,99388.00
2022-10-06T16:59:32.425Z,99380.00
2022-10-06T17:02:09.031Z,99390.00
2022-10-06T17:04:43.965Z,99386.00
2022-10-06T17:07:19.318Z,99386.00
2022-10-06T17:10:15.693Z,99386.00
2022-10-06T17:12:49.334Z,99388.00
2022-10-06T17:15:24.497Z,99378.00
2022-10-06T17:17:59.434Z,99388.00
2022-10-06T17:20:34.329Z,99387.00
2022-10-06T17:23:09.594Z,99384.00
2022-10-06T17:25:44.501Z,99381.00
2022-10-06T17:28:19.546Z,99381.00
2022-10-06T17:30:59.233Z,99385.00
2022-10-06T17:33:38.629Z,99391.00
2022-10-06T17:36:24.294Z,99387.00
2022-10-06T17:39:03.017Z,99393.00
2022-10-06T17:41:41.492Z,99396.00
2022-10-06T17:44:22.523Z,99389.00
2022-10-06T17:47:00.495Z,99387.00
2022-10-06T17:49:36.162Z,99395.00
2022-10-06T17:52:11.121Z,99397.00
2022-10-06T17:54:46.544Z,99392.00
2022-10-06T17:57:21.464Z,99402.00
2022-10-06T17:59:59.255Z,99398.00
2022-10-06T18:02:34.234Z,99397.00
2022-10-06T18:05:09.713Z,99401.00
2022-10-06T18:07:44.604Z,99397.00
2022-10-06T18:10:37.919Z,99388.00
2022-10-06T18:13:12.773Z,99386.00
2022-10-06T18:15:49.463Z,99388.00
2022-10-06T18:18:25.118Z,99388.00
2022-10-06T18:21:03.977Z,99387.00
2022-10-06T18:23:39.091Z,99387.00
2022-10-06T18:26:17.493Z,99388.00
2022-10-06T18:28:52.472Z,99391.00
2022-10-06T18:31:27.470Z,99386.00
2022-10-06T18:36:10.956Z,99386.00
2022-10-06T18:36:57.929Z,99394.00
2022-10-06T18:39:33.533Z,99391.00
2022-10-06T18:42:11.140Z,99379.00
2022-10-06T18:45:05.206Z,99387.00
2022-10-06T18:47:58.644Z,99395.00
2022-10-06T18:50:35.096Z,99385.00
2022-10-06T18:53:10.211Z,99386.00
2022-10-06T18:55:45.947Z,99386.00
2022-10-06T18:58:20.870Z,99382.00
2022-10-06T19:00:56.140Z,99382.00
2022-10-06T19:03:31.677Z,99380.00
2022-10-06T19:06:07.338Z,99376.00
2022-10-06T19:08:42.433Z,99383.00
2022-10-06T19:11:35.893Z,99383.00
2022-10-06T19:14:16.475Z,99379.00
2022-10-06T19:17:02.052Z,99380.00
2022-10-06T19:19:36.955Z,99384.00
2022-10-06T19:22:14.224Z,99381.00
2022-10-06T19:24:49.292Z,99378.00
2022-10-06T19:27:25.457Z,99375.00
2022-10-06T19:30:00.377Z,99377.00
2022-10-06T19:32:35.582Z,99380.00
2022-10-06T19:35:11.454Z,99392.00
2022-10-06T19:37:46.581Z,99391.00
2022-10-06T19:40:21.595Z,99382.00
2022-10-06T19:42:56.502Z,99379.00
2022-10-06T19:45:31.403Z,99388.00
2022-10-06T19:48:10.534Z,99387.00
2022-10-06T19:50:45.763Z,99385.00
2022-10-06T19:53:21.314Z,99393.00
2022-10-06T19:56:01.842Z,99385.00
2022-10-06T19:58:37.068Z,99384.00
2022-10-06T20:01:12.079Z,99387.00
2022-10-06T20:03:47.136Z,99390.00
2022-10-06T20:06:26.413Z,99395.00
2022-10-06T20:09:08.766Z,99384.00
2022-10-06T20:11:47.282Z,99380.00
2022-10-06T20:14:23.850Z,99377.00
2022-10-06T20:16:58.827Z,99377.00
2022-10-06T20:19:34.587Z,99371.00
2022-10-06T20:22:09.533Z,99376.00
2022-10-06T20:24:45.877Z,99376.00
2022-10-06T20:27:21.865Z,99386.00
2022-10-06T20:29:58.087Z,99381.00
2022-10-06T20:32:33.104Z,99387.00
2022-10-06T20:35:09.446Z,99382.00
2022-10-06T20:37:44.574Z,99381.00
2022-10-06T20:40:38.322Z,99385.00
2022-10-06T20:43:13.856Z,99385.00
2022-10-06T20:45:48.929Z,99386.00
2022-10-06T20:48:25.921Z,99384.00
2022-10-06T20:51:01.586Z,99385.00
2022-10-06T20:53:36.445Z,99381.00
2022-10-06T20:56:11.445Z,99371.00
2022-10-06T20:58:46.334Z,99382.00
2022-10-06T21:01:22.706Z,99374.00
2022-10-06T21:03:58.868Z,99368.00
2022-10-06T21:06:33.934Z,99375.00
2022-10-06T21:09:13.970Z,99368.00
2022-10-06T21:11:49.712Z,99373.00
2022-10-06T21:14:24.897Z,99368.00
2022-10-06T21:16:59.893Z,99366.00
2022-10-06T21:19:37.958Z,99362.00
2022-10-06T21:22:13.130Z,99365.00
2022-10-06T21:24:48.156Z,99357.00
2022-10-06T21:27:23.222Z,99361.00
2022-10-06T21:29:58.777Z,99358.00
2022-10-06T21:32:33.806Z,99362.00
2022-10-06T21:35:09.394Z,99352.00
2022-10-06T21:37:44.506Z,99355.00
2022-10-06T21:40:19.786Z,99352.00
2022-10-06T21:42:54.849Z,99353.00
2022-10-06T21:45:33.206Z,99350.00
2022-10-06T21:48:08.297Z,99335.00
2022-10-06T21:50:43.325Z,99341.00
2022-10-06T21:53:18.379Z,99339.00
2022-10-06T21:55:54.037Z,99340.00
2022-10-06T21:58:29.071Z,99337.00
2022-10-06T22:01:06.989Z,99331.00
2022-10-06T22:03:41.996Z,99326.00
2022-10-06T22:06:19.538Z,99326.00
2022-10-06T22:08:56.425Z,99325.00
2022-10-06T22:11:39.094Z,99320.00
2022-10-06T22:14:16.778Z,99319.00
2022-10-06T22:16:51.772Z,99316.00
2022-10-06T22:19:26.837Z,99312.00
2022-10-06T22:22:02.042Z,99319.00
2022-10-06T22:24:37.134Z,99317.00
2022-10-06T22:27:12.129Z,99304.00
2022-10-06T22:29:47.184Z,99309.00
2022-10-06T22:32:23.342Z,99317.00
2022-10-06T22:34:58.379Z,99321.00
2022-10-06T22:37:33.433Z,99319.00
2022-10-06T22:40:09.780Z,99315.00
2022-10-06T22:42:44.780Z,99311.00
2022-10-06T22:45:19.838Z,99315.00
2022-10-06T22:47:54.893Z,99305.00
2022-10-06T22:50:29.939Z,99293.00
2022-10-06T22:53:04.996Z,99295.00
2022-10-06T22:55:40.003Z,99292.00
2022-10-06T22:58:16.436Z,99291.00
2022-10-06T23:00:51.664Z,99284.00
2022-10-06T23:03:26.850Z,99276.00
2022-10-06T23:06:01.992Z,99272.00
2022-10-06T23:08:38.177Z,99275.00
2022-10-06T23:11:21.285Z,99273.00
2022-10-06T23:13:56.463Z,99264.00
2022-10-06T23:16:31.516Z,99257.00
2022-10-06T23:19:06.644Z,99257.00
2022-10-06T23:21:41.726Z,99254.00
2022-10-06T23:24:16.769Z,99250.00
2022-10-06T23:26:51.774Z,99253.00
2022-10-06T23:29:26.797Z,99251.00
2022-10-06T23:32:01.913Z,99242.00
2022-10-06T23:34:37.084Z,99243.00
2022-10-06T23:37:12.162Z,99242.00
2022-10-06T23:39:47.194Z,99251.00
2022-10-06T23:42:22.255Z,99244.00
2022-10-06T23:44:57.395Z,99250.00
2022-10-06T23:47:32.383Z,99247.00
2022-10-06T23:50:08.032Z,99244.00
2022-10-06T23:52:43.029Z,99243.00
2022-10-06T23:55:18.083Z,99241.00
2022-10-06T23:57:53.149Z,99245.00
